Rucker, Arizona
Current Conditions -  °F | °C
As of 1:30 AM on Friday 19 Dec 2014 (Local Time) from KSAD Reporting Station
Haze Haze  
Wind Chill: 35°   Ceiling: Unl
Heat Index: 35°   Visibility: 0.75mi
Dew Point: 34°   Wind: 3mph
Humidity: 96%   Direction: 120°ESE
Pressure: 30.18"   Gusts: NA
Location:  32.5598°N, 110.08°W
Report Text: KSAD 190830Z AUTO 12003KT 3/4SM BR CLR 02/01 A3018 RMK AO2 T00170011
Loading
Personal Weather Stations






























Interactive Weather Map New forecast layout! Learn more

10-Day Weather Forecast

Advertisements
Track Severe Weather on mobile